sensor_id;sensor_type;location;lat;lon;timestamp;temperature;humidity
18321;DHT22;54904;54.350;18.664;2023-04-06T00:01:23;6.10;75.10
18321;DHT22;54904;54.350;18.664;2023-04-06T00:03:50;6.10;75.40
18321;DHT22;54904;54.350;18.664;2023-04-06T00:06:17;6.20;76.30
18321;DHT22;54904;54.350;18.664;2023-04-06T00:08:44;6.10;75.50
18321;DHT22;54904;54.350;18.664;2023-04-06T00:11:11;6.10;75.50
18321;DHT22;54904;54.350;18.664;2023-04-06T00:13:38;6.10;75.60
18321;DHT22;54904;54.350;18.664;2023-04-06T00:16:07;6.10;75.60
18321;DHT22;54904;54.350;18.664;2023-04-06T00:18:36;6.10;75.90
18321;DHT22;54904;54.350;18.664;2023-04-06T00:21:03;6.10;75.70
18321;DHT22;54904;54.350;18.664;2023-04-06T00:23:31;6.10;75.70
18321;DHT22;54904;54.350;18.664;2023-04-06T00:25:58;6.10;75.80
18321;DHT22;54904;54.350;18.664;2023-04-06T00:28:25;6.10;75.70
18321;DHT22;54904;54.350;18.664;2023-04-06T00:30:53;6.10;75.90
18321;DHT22;54904;54.350;18.664;2023-04-06T00:33:21;6.10;75.90
18321;DHT22;54904;54.350;18.664;2023-04-06T00:35:50;6.10;75.90
18321;DHT22;54904;54.350;18.664;2023-04-06T00:38:18;6.10;75.90
18321;DHT22;54904;54.350;18.664;2023-04-06T00:40:47;6.00;75.90
18321;DHT22;54904;54.350;18.664;2023-04-06T00:43:15;6.00;76.00
18321;DHT22;54904;54.350;18.664;2023-04-06T00:45:42;6.00;76.00
18321;DHT22;54904;54.350;18.664;2023-04-06T00:48:10;6.00;76.10
18321;DHT22;54904;54.350;18.664;2023-04-06T00:50:37;6.00;76.10
18321;DHT22;54904;54.350;18.664;2023-04-06T00:53:06;5.90;76.10
18321;DHT22;54904;54.350;18.664;2023-04-06T00:55:33;5.90;76.20
18321;DHT22;54904;54.350;18.664;2023-04-06T00:58:02;5.90;76.30
18321;DHT22;54904;54.350;18.664;2023-04-06T01:00:35;5.90;76.30
18321;DHT22;54904;54.350;18.664;2023-04-06T01:03:03;5.90;76.30
18321;DHT22;54904;54.350;18.664;2023-04-06T01:05:37;6.00;76.40
18321;DHT22;54904;54.350;18.664;2023-04-06T01:08:12;6.00;76.50
18321;DHT22;54904;54.350;18.664;2023-04-06T01:10:39;5.90;76.30
18321;DHT22;54904;54.350;18.664;2023-04-06T01:13:16;5.90;76.30
18321;DHT22;54904;54.350;18.664;2023-04-06T01:15:49;5.90;76.40
18321;DHT22;54904;54.350;18.664;2023-04-06T01:18:25;5.90;76.50
18321;DHT22;54904;54.350;18.664;2023-04-06T01:21:01;5.90;76.50
18321;DHT22;54904;54.350;18.664;2023-04-06T01:23:30;5.80;76.50
18321;DHT22;54904;54.350;18.664;2023-04-06T01:25:57;5.80;76.60
18321;DHT22;54904;54.350;18.664;2023-04-06T01:28:24;5.80;76.60
18321;DHT22;54904;54.350;18.664;2023-04-06T01:31:07;5.80;76.60
18321;DHT22;54904;54.350;18.664;2023-04-06T01:33:42;5.80;76.60
18321;DHT22;54904;54.350;18.664;2023-04-06T01:36:14;5.80;76.60
18321;DHT22;54904;54.350;18.664;2023-04-06T01:38:43;5.80;76.70
18321;DHT22;54904;54.350;18.664;2023-04-06T01:41:11;5.80;76.80
18321;DHT22;54904;54.350;18.664;2023-04-06T01:43:47;5.80;76.70
18321;DHT22;54904;54.350;18.664;2023-04-06T01:46:15;5.80;76.70
18321;DHT22;54904;54.350;18.664;2023-04-06T01:48:44;5.80;76.70
18321;DHT22;54904;54.350;18.664;2023-04-06T01:51:19;5.80;76.70
18321;DHT22;54904;54.350;18.664;2023-04-06T01:54:00;5.80;76.70
18321;DHT22;54904;54.350;18.664;2023-04-06T01:56:50;5.80;76.80
18321;DHT22;54904;54.350;18.664;2023-04-06T01:59:40;5.80;76.80
18321;DHT22;54904;54.350;18.664;2023-04-06T02:02:15;5.80;76.80
18321;DHT22;54904;54.350;18.664;2023-04-06T02:04:51;5.80;76.80
18321;DHT22;54904;54.350;18.664;2023-04-06T02:07:18;5.80;76.90
18321;DHT22;54904;54.350;18.664;2023-04-06T02:09:47;5.80;76.90
18321;DHT22;54904;54.350;18.664;2023-04-06T02:12:23;5.80;77.00
18321;DHT22;54904;54.350;18.664;2023-04-06T02:14:50;5.80;77.20
18321;DHT22;54904;54.350;18.664;2023-04-06T02:17:17;5.80;77.20
18321;DHT22;54904;54.350;18.664;2023-04-06T02:19:44;5.80;77.20
18321;DHT22;54904;54.350;18.664;2023-04-06T02:22:11;5.70;77.10
18321;DHT22;54904;54.350;18.664;2023-04-06T02:24:38;5.80;77.30
18321;DHT22;54904;54.350;18.664;2023-04-06T02:27:07;5.70;77.30
18321;DHT22;54904;54.350;18.664;2023-04-06T02:29:34;5.70;77.30
18321;DHT22;54904;54.350;18.664;2023-04-06T02:32:03;5.70;77.40
18321;DHT22;54904;54.350;18.664;2023-04-06T02:34:31;5.70;77.50
18321;DHT22;54904;54.350;18.664;2023-04-06T02:36:59;5.60;77.40
18321;DHT22;54904;54.350;18.664;2023-04-06T02:39:26;5.70;77.60
18321;DHT22;54904;54.350;18.664;2023-04-06T02:41:54;5.60;77.50
18321;DHT22;54904;54.350;18.664;2023-04-06T02:44:25;5.60;77.60
18321;DHT22;54904;54.350;18.664;2023-04-06T02:46:52;5.60;77.60
18321;DHT22;54904;54.350;18.664;2023-04-06T02:49:21;5.60;77.70
18321;DHT22;54904;54.350;18.664;2023-04-06T02:51:49;5.60;77.80
18321;DHT22;54904;54.350;18.664;2023-04-06T02:54:26;5.50;77.70
18321;DHT22;54904;54.350;18.664;2023-04-06T02:56:53;5.50;77.80
18321;DHT22;54904;54.350;18.664;2023-04-06T02:59:22;5.50;77.90
18321;DHT22;54904;54.350;18.664;2023-04-06T03:02:01;5.40;77.90
18321;DHT22;54904;54.350;18.664;2023-04-06T03:04:29;5.40;77.90
18321;DHT22;54904;54.350;18.664;2023-04-06T03:06:58;5.40;78.00
18321;DHT22;54904;54.350;18.664;2023-04-06T03:09:36;5.40;78.20
18321;DHT22;54904;54.350;18.664;2023-04-06T03:12:03;5.40;79.00
18321;DHT22;54904;54.350;18.664;2023-04-06T03:14:39;5.40;78.30
18321;DHT22;54904;54.350;18.664;2023-04-06T03:17:07;5.40;78.30
18321;DHT22;54904;54.350;18.664;2023-04-06T03:19:34;5.40;78.50
18321;DHT22;54904;54.350;18.664;2023-04-06T03:22:03;5.40;78.50
18321;DHT22;54904;54.350;18.664;2023-04-06T03:24:30;5.30;78.50
18321;DHT22;54904;54.350;18.664;2023-04-06T03:26:58;5.30;78.60
18321;DHT22;54904;54.350;18.664;2023-04-06T03:29:26;5.30;78.70
18321;DHT22;54904;54.350;18.664;2023-04-06T03:31:54;5.30;79.40
18321;DHT22;54904;54.350;18.664;2023-04-06T03:34:33;5.40;78.70
18321;DHT22;54904;54.350;18.664;2023-04-06T03:37:01;5.40;78.70
18321;DHT22;54904;54.350;18.664;2023-04-06T03:39:29;5.40;78.60
18321;DHT22;54904;54.350;18.664;2023-04-06T03:41:56;5.40;78.60
18321;DHT22;54904;54.350;18.664;2023-04-06T03:44:46;5.30;78.60
18321;DHT22;54904;54.350;18.664;2023-04-06T03:47:13;5.30;78.60
18321;DHT22;54904;54.350;18.664;2023-04-06T03:49:45;5.30;78.90
18321;DHT22;54904;54.350;18.664;2023-04-06T03:52:14;5.20;78.60
18321;DHT22;54904;54.350;18.664;2023-04-06T03:54:41;5.30;78.90
18321;DHT22;54904;54.350;18.664;2023-04-06T03:57:10;5.20;78.70
18321;DHT22;54904;54.350;18.664;2023-04-06T03:59:37;5.20;78.70
18321;DHT22;54904;54.350;18.664;2023-04-06T04:02:04;5.20;78.80
18321;DHT22;54904;54.350;18.664;2023-04-06T04:04:31;5.20;78.80
18321;DHT22;54904;54.350;18.664;2023-04-06T04:06:59;5.20;78.80
18321;DHT22;54904;54.350;18.664;2023-04-06T04:09:26;5.20;78.90
18321;DHT22;54904;54.350;18.664;2023-04-06T04:11:53;5.20;78.90
18321;DHT22;54904;54.350;18.664;2023-04-06T04:14:21;5.20;78.90
18321;DHT22;54904;54.350;18.664;2023-04-06T04:16:48;5.10;78.90
18321;DHT22;54904;54.350;18.664;2023-04-06T04:19:15;5.20;79.10
18321;DHT22;54904;54.350;18.664;2023-04-06T04:21:43;5.10;79.00
18321;DHT22;54904;54.350;18.664;2023-04-06T04:24:14;5.10;79.10
18321;DHT22;54904;54.350;18.664;2023-04-06T04:26:41;5.10;79.10
18321;DHT22;54904;54.350;18.664;2023-04-06T04:29:09;5.20;79.10
18321;DHT22;54904;54.350;18.664;2023-04-06T04:31:37;5.20;79.00
18321;DHT22;54904;54.350;18.664;2023-04-06T04:34:11;5.20;79.00
18321;DHT22;54904;54.350;18.664;2023-04-06T04:36:38;5.20;79.00
18321;DHT22;54904;54.350;18.664;2023-04-06T04:39:09;5.20;79.70
18321;DHT22;54904;54.350;18.664;2023-04-06T04:41:42;5.20;78.90
18321;DHT22;54904;54.350;18.664;2023-04-06T04:44:11;5.20;78.90
18321;DHT22;54904;54.350;18.664;2023-04-06T04:46:39;5.20;78.90
18321;DHT22;54904;54.350;18.664;2023-04-06T04:49:08;5.20;79.00
18321;DHT22;54904;54.350;18.664;2023-04-06T04:51:35;5.20;79.00
18321;DHT22;54904;54.350;18.664;2023-04-06T04:54:08;5.20;79.00
18321;DHT22;54904;54.350;18.664;2023-04-06T04:56:36;5.20;79.00
18321;DHT22;54904;54.350;18.664;2023-04-06T04:59:14;5.20;78.90
18321;DHT22;54904;54.350;18.664;2023-04-06T05:01:49;5.20;78.90
18321;DHT22;54904;54.350;18.664;2023-04-06T05:04:16;5.20;78.90
18321;DHT22;54904;54.350;18.664;2023-04-06T05:06:43;5.30;79.00
18321;DHT22;54904;54.350;18.664;2023-04-06T05:09:11;5.30;79.00
18321;DHT22;54904;54.350;18.664;2023-04-06T05:11:41;5.30;79.00
18321;DHT22;54904;54.350;18.664;2023-04-06T05:14:08;5.30;79.00
18321;DHT22;54904;54.350;18.664;2023-04-06T05:16:38;5.30;79.00
18321;DHT22;54904;54.350;18.664;2023-04-06T05:19:06;5.40;79.00
18321;DHT22;54904;54.350;18.664;2023-04-06T05:21:39;5.40;79.00
18321;DHT22;54904;54.350;18.664;2023-04-06T05:24:07;5.40;79.10
18321;DHT22;54904;54.350;18.664;2023-04-06T05:26:35;5.40;79.00
18321;DHT22;54904;54.350;18.664;2023-04-06T05:29:09;5.40;79.00
18321;DHT22;54904;54.350;18.664;2023-04-06T05:31:39;5.50;79.10
18321;DHT22;54904;54.350;18.664;2023-04-06T05:34:06;5.50;79.10
18321;DHT22;54904;54.350;18.664;2023-04-06T05:36:36;5.50;79.20
18321;DHT22;54904;54.350;18.664;2023-04-06T05:39:09;5.50;79.30
18321;DHT22;54904;54.350;18.664;2023-04-06T05:41:44;5.50;79.20
18321;DHT22;54904;54.350;18.664;2023-04-06T05:44:13;5.60;79.40
18321;DHT22;54904;54.350;18.664;2023-04-06T05:46:45;5.60;79.30
18321;DHT22;54904;54.350;18.664;2023-04-06T05:49:15;5.70;79.50
18321;DHT22;54904;54.350;18.664;2023-04-06T05:51:43;5.70;79.50
18321;DHT22;54904;54.350;18.664;2023-04-06T05:54:10;5.70;79.50
18321;DHT22;54904;54.350;18.664;2023-04-06T05:56:38;5.80;79.50
18321;DHT22;54904;54.350;18.664;2023-04-06T05:59:09;5.90;80.40
18321;DHT22;54904;54.350;18.664;2023-04-06T06:01:36;5.90;79.70
18321;DHT22;54904;54.350;18.664;2023-04-06T06:04:06;6.10;79.90
18321;DHT22;54904;54.350;18.664;2023-04-06T06:06:36;6.20;79.90
18321;DHT22;54904;54.350;18.664;2023-04-06T06:09:15;6.20;79.80
18321;DHT22;54904;54.350;18.664;2023-04-06T06:11:56;6.40;80.00
18321;DHT22;54904;54.350;18.664;2023-04-06T06:14:26;6.50;79.90
18321;DHT22;54904;54.350;18.664;2023-04-06T06:16:54;6.50;79.50
18321;DHT22;54904;54.350;18.664;2023-04-06T06:19:23;6.60;79.40
18321;DHT22;54904;54.350;18.664;2023-04-06T06:21:53;6.70;79.10
18321;DHT22;54904;54.350;18.664;2023-04-06T06:24:21;6.80;78.80
18321;DHT22;54904;54.350;18.664;2023-04-06T06:26:48;6.80;78.50
18321;DHT22;54904;54.350;18.664;2023-04-06T06:29:17;6.90;78.10
18321;DHT22;54904;54.350;18.664;2023-04-06T06:31:44;7.00;77.70
18321;DHT22;54904;54.350;18.664;2023-04-06T06:34:14;7.00;77.00
18321;DHT22;54904;54.350;18.664;2023-04-06T06:36:43;7.10;76.60
18321;DHT22;54904;54.350;18.664;2023-04-06T06:39:12;7.10;76.50
18321;DHT22;54904;54.350;18.664;2023-04-06T06:41:39;7.10;76.30
18321;DHT22;54904;54.350;18.664;2023-04-06T06:44:06;7.10;76.10
18321;DHT22;54904;54.350;18.664;2023-04-06T06:46:34;7.20;76.10
18321;DHT22;54904;54.350;18.664;2023-04-06T06:49:01;7.20;76.10
18321;DHT22;54904;54.350;18.664;2023-04-06T06:51:29;7.30;76.00
18321;DHT22;54904;54.350;18.664;2023-04-06T06:53:58;7.30;75.80
18321;DHT22;54904;54.350;18.664;2023-04-06T06:56:25;7.40;75.70
18321;DHT22;54904;54.350;18.664;2023-04-06T06:58:54;7.50;75.60
18321;DHT22;54904;54.350;18.664;2023-04-06T07:01:21;7.60;75.50
18321;DHT22;54904;54.350;18.664;2023-04-06T07:03:48;7.70;75.60
18321;DHT22;54904;54.350;18.664;2023-04-06T07:06:15;7.70;75.70
18321;DHT22;54904;54.350;18.664;2023-04-06T07:08:42;7.80;75.90
18321;DHT22;54904;54.350;18.664;2023-04-06T07:11:11;7.90;76.00
18321;DHT22;54904;54.350;18.664;2023-04-06T07:13:38;8.00;76.20
18321;DHT22;54904;54.350;18.664;2023-04-06T07:16:05;8.00;76.40
18321;DHT22;54904;54.350;18.664;2023-04-06T07:18:32;8.10;76.40
18321;DHT22;54904;54.350;18.664;2023-04-06T07:20:59;8.20;76.40
18321;DHT22;54904;54.350;18.664;2023-04-06T07:23:27;8.30;76.40
18321;DHT22;54904;54.350;18.664;2023-04-06T07:25:54;8.40;76.30
18321;DHT22;54904;54.350;18.664;2023-04-06T07:28:22;8.40;76.20
18321;DHT22;54904;54.350;18.664;2023-04-06T07:30:49;8.40;76.40
18321;DHT22;54904;54.350;18.664;2023-04-06T07:33:17;8.40;76.40
18321;DHT22;54904;54.350;18.664;2023-04-06T07:35:44;8.50;76.70
18321;DHT22;54904;54.350;18.664;2023-04-06T07:38:11;8.60;76.90
18321;DHT22;54904;54.350;18.664;2023-04-06T07:40:40;8.70;77.10
18321;DHT22;54904;54.350;18.664;2023-04-06T07:43:07;8.70;76.90
18321;DHT22;54904;54.350;18.664;2023-04-06T07:45:36;8.80;76.90
18321;DHT22;54904;54.350;18.664;2023-04-06T07:48:03;8.80;76.80
18321;DHT22;54904;54.350;18.664;2023-04-06T07:50:32;8.80;77.00
18321;DHT22;54904;54.350;18.664;2023-04-06T07:52:59;8.90;77.20
18321;DHT22;54904;54.350;18.664;2023-04-06T07:55:27;9.00;77.40
18321;DHT22;54904;54.350;18.664;2023-04-06T07:57:54;9.10;77.30
18321;DHT22;54904;54.350;18.664;2023-04-06T08:00:22;9.20;77.00
18321;DHT22;54904;54.350;18.664;2023-04-06T08:02:50;9.30;76.90
18321;DHT22;54904;54.350;18.664;2023-04-06T08:05:17;9.40;77.10
18321;DHT22;54904;54.350;18.664;2023-04-06T08:07:44;9.50;76.90
18321;DHT22;54904;54.350;18.664;2023-04-06T08:10:12;9.50;76.70
18321;DHT22;54904;54.350;18.664;2023-04-06T08:12:39;9.50;76.50
18321;DHT22;54904;54.350;18.664;2023-04-06T08:15:06;9.60;76.30
18321;DHT22;54904;54.350;18.664;2023-04-06T08:17:33;9.60;76.20
18321;DHT22;54904;54.350;18.664;2023-04-06T08:20:02;9.60;75.90
18321;DHT22;54904;54.350;18.664;2023-04-06T08:22:30;9.70;75.90
18321;DHT22;54904;54.350;18.664;2023-04-06T08:24:57;9.80;75.80
18321;DHT22;54904;54.350;18.664;2023-04-06T08:27:24;9.90;75.40
18321;DHT22;54904;54.350;18.664;2023-04-06T08:29:51;10.00;73.70
18321;DHT22;54904;54.350;18.664;2023-04-06T08:32:18;10.20;73.50
18321;DHT22;54904;54.350;18.664;2023-04-06T08:34:45;10.30;73.30
18321;DHT22;54904;54.350;18.664;2023-04-06T08:37:13;10.40;72.90
18321;DHT22;54904;54.350;18.664;2023-04-06T08:39:40;10.40;72.20
18321;DHT22;54904;54.350;18.664;2023-04-06T08:42:12;10.50;72.30
18321;DHT22;54904;54.350;18.664;2023-04-06T08:44:43;10.70;71.90
18321;DHT22;54904;54.350;18.664;2023-04-06T08:47:11;10.80;71.70
18321;DHT22;54904;54.350;18.664;2023-04-06T08:49:38;10.80;71.30
18321;DHT22;54904;54.350;18.664;2023-04-06T08:52:06;10.90;71.00
18321;DHT22;54904;54.350;18.664;2023-04-06T08:54:35;11.00;70.70
18321;DHT22;54904;54.350;18.664;2023-04-06T08:57:03;11.00;70.30
18321;DHT22;54904;54.350;18.664;2023-04-06T08:59:31;11.10;70.10
18321;DHT22;54904;54.350;18.664;2023-04-06T09:01:59;11.10;69.70
18321;DHT22;54904;54.350;18.664;2023-04-06T09:04:31;11.20;69.60
18321;DHT22;54904;54.350;18.664;2023-04-06T09:06:58;11.20;69.40
18321;DHT22;54904;54.350;18.664;2023-04-06T09:09:25;11.20;68.60
18321;DHT22;54904;54.350;18.664;2023-04-06T09:11:54;11.30;68.50
18321;DHT22;54904;54.350;18.664;2023-04-06T09:14:34;11.30;67.90
18321;DHT22;54904;54.350;18.664;2023-04-06T09:17:02;11.20;67.80
18321;DHT22;54904;54.350;18.664;2023-04-06T09:19:29;11.30;67.50
18321;DHT22;54904;54.350;18.664;2023-04-06T09:22:02;11.30;67.30
18321;DHT22;54904;54.350;18.664;2023-04-06T09:24:39;11.30;67.10
18321;DHT22;54904;54.350;18.664;2023-04-06T09:27:08;11.40;67.20
18321;DHT22;54904;54.350;18.664;2023-04-06T09:29:35;11.60;66.90
18321;DHT22;54904;54.350;18.664;2023-04-06T09:32:04;11.70;66.60
18321;DHT22;54904;54.350;18.664;2023-04-06T09:34:31;11.80;66.20
18321;DHT22;54904;54.350;18.664;2023-04-06T09:36:58;11.80;65.40
18321;DHT22;54904;54.350;18.664;2023-04-06T09:39:25;11.70;64.60
18321;DHT22;54904;54.350;18.664;2023-04-06T09:41:53;11.60;64.80
18321;DHT22;54904;54.350;18.664;2023-04-06T09:44:22;11.60;65.00
18321;DHT22;54904;54.350;18.664;2023-04-06T09:46:52;11.60;65.20
18321;DHT22;54904;54.350;18.664;2023-04-06T09:49:20;11.60;65.10
18321;DHT22;54904;54.350;18.664;2023-04-06T09:51:54;11.60;65.20
18321;DHT22;54904;54.350;18.664;2023-04-06T09:54:23;11.50;65.00
18321;DHT22;54904;54.350;18.664;2023-04-06T09:57:10;11.30;65.20
18321;DHT22;54904;54.350;18.664;2023-04-06T09:59:52;11.30;65.40
18321;DHT22;54904;54.350;18.664;2023-04-06T10:02:28;11.20;65.20
18321;DHT22;54904;54.350;18.664;2023-04-06T10:05:02;11.20;65.20
18321;DHT22;54904;54.350;18.664;2023-04-06T10:07:33;11.10;65.50
18321;DHT22;54904;54.350;18.664;2023-04-06T10:10:02;11.10;65.50
18321;DHT22;54904;54.350;18.664;2023-04-06T10:12:30;11.10;65.70
18321;DHT22;54904;54.350;18.664;2023-04-06T10:14:59;11.10;65.90
18321;DHT22;54904;54.350;18.664;2023-04-06T10:17:26;11.20;65.70
18321;DHT22;54904;54.350;18.664;2023-04-06T10:19:57;11.20;65.70
18321;DHT22;54904;54.350;18.664;2023-04-06T10:22:29;11.30;65.60
18321;DHT22;54904;54.350;18.664;2023-04-06T10:24:59;11.40;65.40
18321;DHT22;54904;54.350;18.664;2023-04-06T10:27:30;11.40;65.30
18321;DHT22;54904;54.350;18.664;2023-04-06T10:30:03;11.50;64.50
18321;DHT22;54904;54.350;18.664;2023-04-06T10:32:35;11.60;64.40
18321;DHT22;54904;54.350;18.664;2023-04-06T10:35:10;11.70;64.60
18321;DHT22;54904;54.350;18.664;2023-04-06T10:37:50;11.80;65.30
18321;DHT22;54904;54.350;18.664;2023-04-06T10:40:22;11.80;64.90
18321;DHT22;54904;54.350;18.664;2023-04-06T10:42:51;11.80;64.90
18321;DHT22;54904;54.350;18.664;2023-04-06T10:45:24;11.70;64.50
18321;DHT22;54904;54.350;18.664;2023-04-06T10:47:52;11.70;64.50
18321;DHT22;54904;54.350;18.664;2023-04-06T10:50:20;11.70;64.60
18321;DHT22;54904;54.350;18.664;2023-04-06T10:52:58;11.70;64.60
18321;DHT22;54904;54.350;18.664;2023-04-06T10:55:26;11.80;65.40
18321;DHT22;54904;54.350;18.664;2023-04-06T10:57:53;11.70;63.50
18321;DHT22;54904;54.350;18.664;2023-04-06T11:00:21;11.60;63.70
18321;DHT22;54904;54.350;18.664;2023-04-06T11:02:49;11.50;63.40
18321;DHT22;54904;54.350;18.664;2023-04-06T11:05:16;11.50;64.00
18321;DHT22;54904;54.350;18.664;2023-04-06T11:07:44;11.50;63.90
18321;DHT22;54904;54.350;18.664;2023-04-06T11:10:11;11.60;63.80
18321;DHT22;54904;54.350;18.664;2023-04-06T11:12:38;11.70;63.60
18321;DHT22;54904;54.350;18.664;2023-04-06T11:15:06;11.70;63.60
18321;DHT22;54904;54.350;18.664;2023-04-06T11:17:35;11.70;63.60
18321;DHT22;54904;54.350;18.664;2023-04-06T11:20:05;11.60;63.20
18321;DHT22;54904;54.350;18.664;2023-04-06T11:22:36;11.50;63.30
18321;DHT22;54904;54.350;18.664;2023-04-06T11:25:14;11.50;63.70
18321;DHT22;54904;54.350;18.664;2023-04-06T11:27:42;11.50;63.50
18321;DHT22;54904;54.350;18.664;2023-04-06T11:30:10;11.50;63.50
18321;DHT22;54904;54.350;18.664;2023-04-06T11:32:39;11.70;63.60
18321;DHT22;54904;54.350;18.664;2023-04-06T11:35:11;11.70;63.50
18321;DHT22;54904;54.350;18.664;2023-04-06T11:37:38;11.80;63.40
18321;DHT22;54904;54.350;18.664;2023-04-06T11:40:08;11.90;63.10
18321;DHT22;54904;54.350;18.664;2023-04-06T11:42:36;12.00;62.80
18321;DHT22;54904;54.350;18.664;2023-04-06T11:45:04;12.10;62.90
18321;DHT22;54904;54.350;18.664;2023-04-06T11:47:33;12.10;62.90
18321;DHT22;54904;54.350;18.664;2023-04-06T11:50:06;12.20;62.70
18321;DHT22;54904;54.350;18.664;2023-04-06T11:52:34;12.20;62.90
18321;DHT22;54904;54.350;18.664;2023-04-06T11:55:14;12.20;62.90
18321;DHT22;54904;54.350;18.664;2023-04-06T11:57:41;12.20;63.10
18321;DHT22;54904;54.350;18.664;2023-04-06T12:00:10;12.10;63.10
18321;DHT22;54904;54.350;18.664;2023-04-06T12:02:37;12.20;63.20
18321;DHT22;54904;54.350;18.664;2023-04-06T12:05:06;12.20;63.00
18321;DHT22;54904;54.350;18.664;2023-04-06T12:07:35;12.20;62.80
18321;DHT22;54904;54.350;18.664;2023-04-06T12:10:03;12.10;62.30
18321;DHT22;54904;54.350;18.664;2023-04-06T12:12:31;11.90;62.10
18321;DHT22;54904;54.350;18.664;2023-04-06T12:14:58;11.70;62.30
18321;DHT22;54904;54.350;18.664;2023-04-06T12:17:25;11.50;62.40
18321;DHT22;54904;54.350;18.664;2023-04-06T12:19:55;11.40;62.70
18321;DHT22;54904;54.350;18.664;2023-04-06T12:22:22;11.30;62.90
18321;DHT22;54904;54.350;18.664;2023-04-06T12:24:50;11.20;62.80
18321;DHT22;54904;54.350;18.664;2023-04-06T12:27:17;11.20;62.70
18321;DHT22;54904;54.350;18.664;2023-04-06T12:29:44;11.10;62.70
18321;DHT22;54904;54.350;18.664;2023-04-06T12:32:11;11.20;63.00
18321;DHT22;54904;54.350;18.664;2023-04-06T12:34:38;11.50;63.30
18321;DHT22;54904;54.350;18.664;2023-04-06T12:37:06;11.40;62.90
18321;DHT22;54904;54.350;18.664;2023-04-06T12:39:33;11.60;62.80
18321;DHT22;54904;54.350;18.664;2023-04-06T12:42:02;11.60;62.10
18321;DHT22;54904;54.350;18.664;2023-04-06T12:44:30;11.70;62.00
18321;DHT22;54904;54.350;18.664;2023-04-06T12:46:57;11.70;62.60
18321;DHT22;54904;54.350;18.664;2023-04-06T12:49:24;11.80;61.70
18321;DHT22;54904;54.350;18.664;2023-04-06T12:51:52;11.90;61.50
18321;DHT22;54904;54.350;18.664;2023-04-06T12:54:19;11.80;61.10
18321;DHT22;54904;54.350;18.664;2023-04-06T12:56:46;11.80;61.40
18321;DHT22;54904;54.350;18.664;2023-04-06T12:59:18;11.80;60.80
18321;DHT22;54904;54.350;18.664;2023-04-06T13:01:48;11.70;60.50
18321;DHT22;54904;54.350;18.664;2023-04-06T13:04:15;11.50;60.80
18321;DHT22;54904;54.350;18.664;2023-04-06T13:06:42;11.50;61.60
18321;DHT22;54904;54.350;18.664;2023-04-06T13:09:11;11.40;61.10
18321;DHT22;54904;54.350;18.664;2023-04-06T13:11:38;11.40;61.30
18321;DHT22;54904;54.350;18.664;2023-04-06T13:14:07;11.40;61.30
18321;DHT22;54904;54.350;18.664;2023-04-06T13:16:35;11.20;60.90
18321;DHT22;54904;54.350;18.664;2023-04-06T13:19:03;11.10;61.00
18321;DHT22;54904;54.350;18.664;2023-04-06T13:21:30;11.10;61.30
18321;DHT22;54904;54.350;18.664;2023-04-06T13:23:57;11.10;61.50
18321;DHT22;54904;54.350;18.664;2023-04-06T13:26:24;11.00;61.70
18321;DHT22;54904;54.350;18.664;2023-04-06T13:28:52;10.90;61.80
18321;DHT22;54904;54.350;18.664;2023-04-06T13:31:19;10.80;61.90
18321;DHT22;54904;54.350;18.664;2023-04-06T13:33:47;10.80;61.90
18321;DHT22;54904;54.350;18.664;2023-04-06T13:36:14;10.70;61.90
18321;DHT22;54904;54.350;18.664;2023-04-06T13:38:41;10.60;61.90
18321;DHT22;54904;54.350;18.664;2023-04-06T13:41:09;10.50;62.10
18321;DHT22;54904;54.350;18.664;2023-04-06T13:43:36;10.50;62.40
18321;DHT22;54904;54.350;18.664;2023-04-06T13:46:03;10.30;62.50
18321;DHT22;54904;54.350;18.664;2023-04-06T13:48:30;10.30;62.80
18321;DHT22;54904;54.350;18.664;2023-04-06T13:51:08;10.20;62.80
18321;DHT22;54904;54.350;18.664;2023-04-06T13:53:35;10.10;63.00
18321;DHT22;54904;54.350;18.664;2023-04-06T13:56:03;10.00;63.30
18321;DHT22;54904;54.350;18.664;2023-04-06T13:58:30;9.90;64.80
18321;DHT22;54904;54.350;18.664;2023-04-06T14:01:02;9.80;65.30
18321;DHT22;54904;54.350;18.664;2023-04-06T14:03:29;9.80;65.70
18321;DHT22;54904;54.350;18.664;2023-04-06T14:05:58;9.70;66.00
18321;DHT22;54904;54.350;18.664;2023-04-06T14:08:25;9.60;66.20
18321;DHT22;54904;54.350;18.664;2023-04-06T14:10:52;9.60;66.50
18321;DHT22;54904;54.350;18.664;2023-04-06T14:13:21;9.60;66.80
18321;DHT22;54904;54.350;18.664;2023-04-06T14:15:53;9.60;67.20
18321;DHT22;54904;54.350;18.664;2023-04-06T14:18:20;9.60;67.50
18321;DHT22;54904;54.350;18.664;2023-04-06T14:20:54;9.50;67.60
18321;DHT22;54904;54.350;18.664;2023-04-06T14:23:22;9.50;67.50
18321;DHT22;54904;54.350;18.664;2023-04-06T14:25:51;9.40;67.70
18321;DHT22;54904;54.350;18.664;2023-04-06T14:28:20;9.40;67.90
18321;DHT22;54904;54.350;18.664;2023-04-06T14:30:47;9.40;68.10
18321;DHT22;54904;54.350;18.664;2023-04-06T14:33:14;9.30;69.00
18321;DHT22;54904;54.350;18.664;2023-04-06T14:35:42;9.30;69.30
18321;DHT22;54904;54.350;18.664;2023-04-06T14:38:09;9.30;70.20
18321;DHT22;54904;54.350;18.664;2023-04-06T14:40:37;9.20;69.70
18321;DHT22;54904;54.350;18.664;2023-04-06T14:43:04;9.20;69.80
18321;DHT22;54904;54.350;18.664;2023-04-06T14:45:33;9.30;70.10
18321;DHT22;54904;54.350;18.664;2023-04-06T14:48:00;9.20;70.50
18321;DHT22;54904;54.350;18.664;2023-04-06T14:50:27;9.20;70.80
18321;DHT22;54904;54.350;18.664;2023-04-06T14:52:54;9.10;70.90
18321;DHT22;54904;54.350;18.664;2023-04-06T14:55:21;9.00;71.00
18321;DHT22;54904;54.350;18.664;2023-04-06T14:57:50;9.00;71.10
18321;DHT22;54904;54.350;18.664;2023-04-06T15:00:18;9.00;71.50
18321;DHT22;54904;54.350;18.664;2023-04-06T15:02:45;8.90;71.80
18321;DHT22;54904;54.350;18.664;2023-04-06T15:05:12;8.90;71.90
18321;DHT22;54904;54.350;18.664;2023-04-06T15:07:40;8.80;71.80
18321;DHT22;54904;54.350;18.664;2023-04-06T15:10:09;8.80;71.90
18321;DHT22;54904;54.350;18.664;2023-04-06T15:12:37;8.80;72.20
18321;DHT22;54904;54.350;18.664;2023-04-06T15:15:06;8.80;72.50
18321;DHT22;54904;54.350;18.664;2023-04-06T15:17:34;8.80;72.80
18321;DHT22;54904;54.350;18.664;2023-04-06T15:20:01;8.80;73.60
18321;DHT22;54904;54.350;18.664;2023-04-06T15:22:28;8.80;73.80
18321;DHT22;54904;54.350;18.664;2023-04-06T15:24:55;8.70;74.10
18321;DHT22;54904;54.350;18.664;2023-04-06T15:27:22;8.70;74.60
18321;DHT22;54904;54.350;18.664;2023-04-06T15:29:50;8.60;74.50
18321;DHT22;54904;54.350;18.664;2023-04-06T15:32:18;8.60;74.80
18321;DHT22;54904;54.350;18.664;2023-04-06T15:34:46;8.60;75.40
18321;DHT22;54904;54.350;18.664;2023-04-06T15:37:13;8.60;75.40